sensor_id;sensor_type;location;lat;lon;timestamp;P1;durP1;ratioP1;P2;durP2;ratioP2
9052;SDS011;4561;47.450;7.516;2023-07-13T00:03:17;7.63;;;2.30;;
9052;SDS011;4561;47.450;7.516;2023-07-13T00:06:38;3.80;;;2.13;;
9052;SDS011;4561;47.450;7.516;2023-07-13T00:09:58;4.20;;;2.03;;
9052;SDS011;4561;47.450;7.516;2023-07-13T00:13:22;2.03;;;1.67;;
9052;SDS011;4561;47.450;7.516;2023-07-13T00:16:42;5.33;;;1.97;;
9052;SDS011;4561;47.450;7.516;2023-07-13T00:20:03;5.40;;;2.00;;
9052;SDS011;4561;47.450;7.516;2023-07-13T00:23:24;5.33;;;1.90;;
9052;SDS011;4561;47.450;7.516;2023-07-13T00:26:45;2.97;;;2.03;;
9052;SDS011;4561;47.450;7.516;2023-07-13T00:30:06;3.10;;;1.67;;
9052;SDS011;4561;47.450;7.516;2023-07-13T00:33:27;2.40;;;1.60;;
9052;SDS011;4561;47.450;7.516;2023-07-13T00:36:48;1.77;;;1.50;;
9052;SDS011;4561;47.450;7.516;2023-07-13T00:40:10;5.17;;;1.30;;
9052;SDS011;4561;47.450;7.516;2023-07-13T00:43:34;4.33;;;1.30;;
9052;SDS011;4561;47.450;7.516;2023-07-13T00:46:57;2.47;;;1.30;;
9052;SDS011;4561;47.450;7.516;2023-07-13T00:50:18;3.00;;;1.67;;
9052;SDS011;4561;47.450;7.516;2023-07-13T00:53:40;4.00;;;2.03;;
9052;SDS011;4561;47.450;7.516;2023-07-13T00:57:01;3.20;;;1.70;;
9052;SDS011;4561;47.450;7.516;2023-07-13T01:00:28;5.03;;;2.13;;
9052;SDS011;4561;47.450;7.516;2023-07-13T01:03:49;6.50;;;2.43;;
9052;SDS011;4561;47.450;7.516;2023-07-13T01:07:10;3.50;;;2.07;;
9052;SDS011;4561;47.450;7.516;2023-07-13T01:10:31;3.30;;;2.27;;
9052;SDS011;4561;47.450;7.516;2023-07-13T01:14:00;3.83;;;2.40;;
9052;SDS011;4561;47.450;7.516;2023-07-13T01:17:21;4.73;;;2.30;;
9052;SDS011;4561;47.450;7.516;2023-07-13T01:20:58;2.77;;;2.10;;
9052;SDS011;4561;47.450;7.516;2023-07-13T01:24:20;6.53;;;2.20;;
9052;SDS011;4561;47.450;7.516;2023-07-13T01:27:40;4.77;;;2.20;;
9052;SDS011;4561;47.450;7.516;2023-07-13T01:31:01;4.80;;;2.03;;
9052;SDS011;4561;47.450;7.516;2023-07-13T01:34:21;2.20;;;1.80;;
9052;SDS011;4561;47.450;7.516;2023-07-13T01:37:42;2.60;;;1.90;;
9052;SDS011;4561;47.450;7.516;2023-07-13T01:41:04;3.17;;;2.20;;
9052;SDS011;4561;47.450;7.516;2023-07-13T01:44:25;5.50;;;2.33;;
9052;SDS011;4561;47.450;7.516;2023-07-13T01:47:45;2.60;;;1.73;;
9052;SDS011;4561;47.450;7.516;2023-07-13T01:51:11;3.87;;;1.80;;
9052;SDS011;4561;47.450;7.516;2023-07-13T01:54:31;4.43;;;1.70;;
9052;SDS011;4561;47.450;7.516;2023-07-13T01:57:53;2.43;;;1.50;;
9052;SDS011;4561;47.450;7.516;2023-07-13T02:01:16;2.23;;;1.40;;
9052;SDS011;4561;47.450;7.516;2023-07-13T02:04:37;2.60;;;1.50;;
9052;SDS011;4561;47.450;7.516;2023-07-13T02:07:57;4.50;;;1.30;;
9052;SDS011;4561;47.450;7.516;2023-07-13T02:11:20;3.90;;;1.37;;
9052;SDS011;4561;47.450;7.516;2023-07-13T02:14:42;2.90;;;1.30;;
9052;SDS011;4561;47.450;7.516;2023-07-13T02:18:03;2.63;;;1.20;;
9052;SDS011;4561;47.450;7.516;2023-07-13T02:21:23;2.77;;;1.37;;
9052;SDS011;4561;47.450;7.516;2023-07-13T02:24:44;3.40;;;1.57;;
9052;SDS011;4561;47.450;7.516;2023-07-13T02:28:04;2.90;;;1.20;;
9052;SDS011;4561;47.450;7.516;2023-07-13T02:31:25;3.73;;;1.60;;
9052;SDS011;4561;47.450;7.516;2023-07-13T02:34:48;7.17;;;1.90;;
9052;SDS011;4561;47.450;7.516;2023-07-13T02:38:08;1.23;;;1.13;;
9052;SDS011;4561;47.450;7.516;2023-07-13T02:41:28;2.87;;;1.60;;
9052;SDS011;4561;47.450;7.516;2023-07-13T02:44:49;2.93;;;1.87;;
9052;SDS011;4561;47.450;7.516;2023-07-13T02:48:10;2.10;;;1.70;;
9052;SDS011;4561;47.450;7.516;2023-07-13T02:51:31;3.83;;;1.77;;
9052;SDS011;4561;47.450;7.516;2023-07-13T02:54:53;3.10;;;1.63;;
9052;SDS011;4561;47.450;7.516;2023-07-13T02:58:14;2.20;;;1.40;;
9052;SDS011;4561;47.450;7.516;2023-07-13T03:01:37;2.60;;;1.30;;
9052;SDS011;4561;47.450;7.516;2023-07-13T03:04:58;2.20;;;1.10;;
9052;SDS011;4561;47.450;7.516;2023-07-13T03:08:18;3.37;;;1.33;;
9052;SDS011;4561;47.450;7.516;2023-07-13T03:11:39;2.07;;;1.30;;
9052;SDS011;4561;47.450;7.516;2023-07-13T03:14:59;1.53;;;1.10;;
9052;SDS011;4561;47.450;7.516;2023-07-13T03:18:19;2.17;;;1.03;;
9052;SDS011;4561;47.450;7.516;2023-07-13T03:21:40;3.20;;;1.40;;
9052;SDS011;4561;47.450;7.516;2023-07-13T03:25:00;3.27;;;1.63;;
9052;SDS011;4561;47.450;7.516;2023-07-13T03:28:20;2.03;;;1.40;;
9052;SDS011;4561;47.450;7.516;2023-07-13T03:31:41;3.40;;;1.77;;
9052;SDS011;4561;47.450;7.516;2023-07-13T03:35:03;3.70;;;1.60;;
9052;SDS011;4561;47.450;7.516;2023-07-13T03:38:24;4.63;;;1.30;;
9052;SDS011;4561;47.450;7.516;2023-07-13T03:41:45;3.87;;;1.63;;
9052;SDS011;4561;47.450;7.516;2023-07-13T03:45:05;1.97;;;1.50;;
9052;SDS011;4561;47.450;7.516;2023-07-13T03:48:28;4.30;;;1.50;;
9052;SDS011;4561;47.450;7.516;2023-07-13T03:51:49;2.50;;;1.20;;
9052;SDS011;4561;47.450;7.516;2023-07-13T03:55:09;3.23;;;1.07;;
9052;SDS011;4561;47.450;7.516;2023-07-13T03:58:33;1.53;;;1.03;;
9052;SDS011;4561;47.450;7.516;2023-07-13T04:01:58;1.33;;;1.13;;
9052;SDS011;4561;47.450;7.516;2023-07-13T04:05:18;2.63;;;1.20;;
9052;SDS011;4561;47.450;7.516;2023-07-13T04:08:38;1.70;;;1.20;;
9052;SDS011;4561;47.450;7.516;2023-07-13T04:12:02;4.03;;;1.10;;
9052;SDS011;4561;47.450;7.516;2023-07-13T04:15:23;4.00;;;1.20;;
9052;SDS011;4561;47.450;7.516;2023-07-13T04:18:43;1.70;;;1.30;;
9052;SDS011;4561;47.450;7.516;2023-07-13T04:22:05;2.20;;;1.00;;
9052;SDS011;4561;47.450;7.516;2023-07-13T04:25:25;2.80;;;0.80;;
9052;SDS011;4561;47.450;7.516;2023-07-13T04:28:49;2.60;;;1.10;;
9052;SDS011;4561;47.450;7.516;2023-07-13T04:32:10;2.80;;;1.00;;
9052;SDS011;4561;47.450;7.516;2023-07-13T04:35:31;4.10;;;0.97;;
9052;SDS011;4561;47.450;7.516;2023-07-13T04:38:53;1.97;;;1.20;;
9052;SDS011;4561;47.450;7.516;2023-07-13T04:42:16;5.07;;;1.07;;
9052;SDS011;4561;47.450;7.516;2023-07-13T04:45:36;3.80;;;1.13;;
9052;SDS011;4561;47.450;7.516;2023-07-13T04:48:57;2.00;;;0.97;;
9052;SDS011;4561;47.450;7.516;2023-07-13T04:52:18;3.47;;;0.90;;
9052;SDS011;4561;47.450;7.516;2023-07-13T04:55:39;3.73;;;0.97;;
9052;SDS011;4561;47.450;7.516;2023-07-13T04:59:00;4.00;;;0.90;;
9052;SDS011;4561;47.450;7.516;2023-07-13T05:02:21;2.03;;;1.00;;
9052;SDS011;4561;47.450;7.516;2023-07-13T05:05:41;2.50;;;1.27;;
9052;SDS011;4561;47.450;7.516;2023-07-13T05:09:14;2.10;;;1.30;;
9052;SDS011;4561;47.450;7.516;2023-07-13T05:12:34;6.80;;;1.70;;
9052;SDS011;4561;47.450;7.516;2023-07-13T05:15:55;3.03;;;1.80;;
9052;SDS011;4561;47.450;7.516;2023-07-13T05:19:19;4.63;;;1.23;;
9052;SDS011;4561;47.450;7.516;2023-07-13T05:22:40;1.37;;;1.03;;
9052;SDS011;4561;47.450;7.516;2023-07-13T05:26:01;2.70;;;1.83;;
9052;SDS011;4561;47.450;7.516;2023-07-13T05:29:22;3.30;;;1.53;;
9052;SDS011;4561;47.450;7.516;2023-07-13T05:32:42;2.77;;;1.40;;
9052;SDS011;4561;47.450;7.516;2023-07-13T05:36:03;4.37;;;1.30;;
9052;SDS011;4561;47.450;7.516;2023-07-13T05:39:23;1.37;;;1.00;;
9052;SDS011;4561;47.450;7.516;2023-07-13T05:42:44;2.50;;;1.20;;
9052;SDS011;4561;47.450;7.516;2023-07-13T05:46:07;4.23;;;1.30;;
9052;SDS011;4561;47.450;7.516;2023-07-13T05:49:29;7.10;;;1.60;;
9052;SDS011;4561;47.450;7.516;2023-07-13T05:52:50;3.13;;;1.37;;
9052;SDS011;4561;47.450;7.516;2023-07-13T05:56:13;3.33;;;1.53;;
9052;SDS011;4561;47.450;7.516;2023-07-13T05:59:35;4.40;;;1.30;;
9052;SDS011;4561;47.450;7.516;2023-07-13T06:02:57;4.13;;;1.20;;
9052;SDS011;4561;47.450;7.516;2023-07-13T06:06:20;8.03;;;1.10;;
9052;SDS011;4561;47.450;7.516;2023-07-13T06:09:40;2.33;;;0.97;;
9052;SDS011;4561;47.450;7.516;2023-07-13T06:13:01;2.23;;;1.00;;
9052;SDS011;4561;47.450;7.516;2023-07-13T06:16:21;2.33;;;1.00;;
9052;SDS011;4561;47.450;7.516;2023-07-13T06:19:42;5.03;;;1.20;;
9052;SDS011;4561;47.450;7.516;2023-07-13T06:23:02;1.80;;;1.20;;
9052;SDS011;4561;47.450;7.516;2023-07-13T06:26:25;2.80;;;1.40;;
9052;SDS011;4561;47.450;7.516;2023-07-13T06:29:45;3.57;;;0.90;;
9052;SDS011;4561;47.450;7.516;2023-07-13T06:33:06;4.47;;;1.13;;
9052;SDS011;4561;47.450;7.516;2023-07-13T06:36:26;5.00;;;1.27;;
9052;SDS011;4561;47.450;7.516;2023-07-13T06:39:47;2.90;;;1.40;;
9052;SDS011;4561;47.450;7.516;2023-07-13T06:43:07;1.57;;;0.90;;
9052;SDS011;4561;47.450;7.516;2023-07-13T06:46:29;1.73;;;1.17;;
9052;SDS011;4561;47.450;7.516;2023-07-13T06:49:53;2.57;;;1.10;;
9052;SDS011;4561;47.450;7.516;2023-07-13T06:53:14;4.03;;;1.10;;
9052;SDS011;4561;47.450;7.516;2023-07-13T06:56:34;5.63;;;1.40;;
9052;SDS011;4561;47.450;7.516;2023-07-13T06:59:55;5.10;;;1.10;;
9052;SDS011;4561;47.450;7.516;2023-07-13T07:03:17;2.67;;;0.90;;
9052;SDS011;4561;47.450;7.516;2023-07-13T07:06:38;1.90;;;1.07;;
9052;SDS011;4561;47.450;7.516;2023-07-13T07:09:58;2.77;;;0.80;;
9052;SDS011;4561;47.450;7.516;2023-07-13T07:13:18;2.00;;;1.10;;
9052;SDS011;4561;47.450;7.516;2023-07-13T07:16:39;3.57;;;1.70;;
9052;SDS011;4561;47.450;7.516;2023-07-13T07:19:59;3.33;;;1.50;;
9052;SDS011;4561;47.450;7.516;2023-07-13T07:23:20;5.87;;;1.83;;
9052;SDS011;4561;47.450;7.516;2023-07-13T07:26:42;2.50;;;1.10;;
9052;SDS011;4561;47.450;7.516;2023-07-13T07:30:02;2.87;;;1.10;;
9052;SDS011;4561;47.450;7.516;2023-07-13T07:33:28;6.68;;;1.40;;
9052;SDS011;4561;47.450;7.516;2023-07-13T07:36:49;2.05;;;1.13;;
9052;SDS011;4561;47.450;7.516;2023-07-13T07:40:09;1.90;;;0.98;;
9052;SDS011;4561;47.450;7.516;2023-07-13T07:43:30;4.00;;;1.20;;
9052;SDS011;4561;47.450;7.516;2023-07-13T07:46:51;12.25;;;1.27;;
9052;SDS011;4561;47.450;7.516;2023-07-13T07:50:14;5.28;;;1.02;;
9052;SDS011;4561;47.450;7.516;2023-07-13T07:53:34;2.78;;;1.27;;
9052;SDS011;4561;47.450;7.516;2023-07-13T07:56:55;6.53;;;1.38;;
9052;SDS011;4561;47.450;7.516;2023-07-13T08:00:15;1.95;;;1.13;;
9052;SDS011;4561;47.450;7.516;2023-07-13T08:03:36;2.28;;;1.15;;
9052;SDS011;4561;47.450;7.516;2023-07-13T08:06:57;3.55;;;1.20;;
9052;SDS011;4561;47.450;7.516;2023-07-13T08:10:17;2.78;;;1.15;;
9052;SDS011;4561;47.450;7.516;2023-07-13T08:13:38;3.45;;;1.20;;
9052;SDS011;4561;47.450;7.516;2023-07-13T08:16:58;5.40;;;1.15;;
9052;SDS011;4561;47.450;7.516;2023-07-13T08:20:18;4.57;;;1.30;;
9052;SDS011;4561;47.450;7.516;2023-07-13T08:23:39;2.78;;;1.10;;
9052;SDS011;4561;47.450;7.516;2023-07-13T08:27:02;6.55;;;1.33;;
9052;SDS011;4561;47.450;7.516;2023-07-13T08:30:28;1.63;;;1.10;;
9052;SDS011;4561;47.450;7.516;2023-07-13T08:33:48;4.57;;;1.15;;
9052;SDS011;4561;47.450;7.516;2023-07-13T08:37:12;3.92;;;1.40;;
9052;SDS011;4561;47.450;7.516;2023-07-13T08:40:33;2.28;;;1.10;;
9052;SDS011;4561;47.450;7.516;2023-07-13T08:43:57;4.80;;;1.50;;
9052;SDS011;4561;47.450;7.516;2023-07-13T08:47:20;4.93;;;1.25;;
9052;SDS011;4561;47.450;7.516;2023-07-13T08:50:46;6.95;;;1.40;;
9052;SDS011;4561;47.450;7.516;2023-07-13T08:54:22;1.92;;;1.20;;
9052;SDS011;4561;47.450;7.516;2023-07-13T08:57:55;2.15;;;1.40;;
9052;SDS011;4561;47.450;7.516;2023-07-13T09:05:10;2.45;;;1.20;;
9052;SDS011;4561;47.450;7.516;2023-07-13T09:12:23;5.35;;;1.33;;
9052;SDS011;4561;47.450;7.516;2023-07-13T09:15:49;5.18;;;1.55;;
9052;SDS011;4561;47.450;7.516;2023-07-13T09:19:11;2.47;;;1.30;;
9052;SDS011;4561;47.450;7.516;2023-07-13T09:22:39;2.25;;;1.30;;
9052;SDS011;4561;47.450;7.516;2023-07-13T09:26:02;2.03;;;1.30;;
9052;SDS011;4561;47.450;7.516;2023-07-13T09:29:27;2.95;;;1.17;;
9052;SDS011;4561;47.450;7.516;2023-07-13T09:32:50;3.33;;;1.42;;
9052;SDS011;4561;47.450;7.516;2023-07-13T09:36:23;3.75;;;1.35;;
9052;SDS011;4561;47.450;7.516;2023-07-13T09:39:46;6.45;;;1.30;;
9052;SDS011;4561;47.450;7.516;2023-07-13T09:43:07;2.95;;;1.20;;
9052;SDS011;4561;47.450;7.516;2023-07-13T09:46:30;1.33;;;1.10;;
9052;SDS011;4561;47.450;7.516;2023-07-13T09:49:55;1.77;;;1.27;;
9052;SDS011;4561;47.450;7.516;2023-07-13T09:53:18;4.22;;;1.30;;
9052;SDS011;4561;47.450;7.516;2023-07-13T09:56:43;2.42;;;1.33;;
9052;SDS011;4561;47.450;7.516;2023-07-13T10:00:05;5.88;;;1.27;;
9052;SDS011;4561;47.450;7.516;2023-07-13T10:03:32;3.60;;;1.05;;
9052;SDS011;4561;47.450;7.516;2023-07-13T10:07:08;2.05;;;1.13;;
9052;SDS011;4561;47.450;7.516;2023-07-13T10:10:29;1.75;;;1.10;;
9052;SDS011;4561;47.450;7.516;2023-07-13T10:13:56;4.60;;;1.40;;
9052;SDS011;4561;47.450;7.516;2023-07-13T10:17:19;2.05;;;1.27;;
9052;SDS011;4561;47.450;7.516;2023-07-13T10:21:07;4.05;;;1.10;;
9052;SDS011;4561;47.450;7.516;2023-07-13T10:24:32;6.57;;;1.40;;
9052;SDS011;4561;47.450;7.516;2023-07-13T10:28:40;3.55;;;1.48;;
9052;SDS011;4561;47.450;7.516;2023-07-13T10:31:49;2.55;;;1.33;;
9052;SDS011;4561;47.450;7.516;2023-07-13T10:35:11;2.53;;;1.13;;
9052;SDS011;4561;47.450;7.516;2023-07-13T10:38:35;2.20;;;1.20;;
9052;SDS011;4561;47.450;7.516;2023-07-13T10:42:01;5.18;;;1.33;;
9052;SDS011;4561;47.450;7.516;2023-07-13T10:45:25;3.03;;;1.40;;
9052;SDS011;4561;47.450;7.516;2023-07-13T10:48:52;2.60;;;0.75;;
9052;SDS011;4561;47.450;7.516;2023-07-13T10:59:34;1.55;;;1.02;;
9052;SDS011;4561;47.450;7.516;2023-07-13T11:02:57;1.52;;;0.75;;
9052;SDS011;4561;47.450;7.516;2023-07-13T11:06:39;2.75;;;1.10;;
9052;SDS011;4561;47.450;7.516;2023-07-13T11:10:04;2.65;;;1.10;;
9052;SDS011;4561;47.450;7.516;2023-07-13T11:17:25;5.15;;;1.20;;
9052;SDS011;4561;47.450;7.516;2023-07-13T11:20:52;2.75;;;1.00;;
9052;SDS011;4561;47.450;7.516;2023-07-13T11:28:24;5.65;;;1.02;;
9052;SDS011;4561;47.450;7.516;2023-07-13T11:31:53;2.67;;;1.17;;
9052;SDS011;4561;47.450;7.516;2023-07-13T11:35:16;2.70;;;1.10;;
9052;SDS011;4561;47.450;7.516;2023-07-13T11:38:51;5.75;;;0.98;;
9052;SDS011;4561;47.450;7.516;2023-07-13T11:42:18;5.80;;;1.20;;
9052;SDS011;4561;47.450;7.516;2023-07-13T11:45:41;4.80;;;1.30;;
9052;SDS011;4561;47.450;7.516;2023-07-13T11:49:04;1.60;;;1.00;;
9052;SDS011;4561;47.450;7.516;2023-07-13T11:52:30;3.28;;;1.30;;
9052;SDS011;4561;47.450;7.516;2023-07-13T11:55:52;3.17;;;1.13;;
9052;SDS011;4561;47.450;7.516;2023-07-13T11:59:16;4.03;;;1.02;;
9052;SDS011;4561;47.450;7.516;2023-07-13T12:02:43;2.53;;;1.00;;
9052;SDS011;4561;47.450;7.516;2023-07-13T12:06:25;5.05;;;1.38;;
9052;SDS011;4561;47.450;7.516;2023-07-13T12:09:48;3.28;;;1.08;;
9052;SDS011;4561;47.450;7.516;2023-07-13T12:13:10;2.47;;;1.30;;
9052;SDS011;4561;47.450;7.516;2023-07-13T12:16:34;3.60;;;1.33;;
9052;SDS011;4561;47.450;7.516;2023-07-13T12:19:54;1.67;;;1.40;;
9052;SDS011;4561;47.450;7.516;2023-07-13T12:23:20;2.50;;;1.25;;
9052;SDS011;4561;47.450;7.516;2023-07-13T12:26:44;3.13;;;1.33;;
9052;SDS011;4561;47.450;7.516;2023-07-13T12:30:26;4.63;;;1.38;;
9052;SDS011;4561;47.450;7.516;2023-07-13T12:33:46;2.15;;;1.08;;
9052;SDS011;4561;47.450;7.516;2023-07-13T12:37:08;3.58;;;1.42;;
9052;SDS011;4561;47.450;7.516;2023-07-13T12:40:34;5.35;;;1.27;;
9052;SDS011;4561;47.450;7.516;2023-07-13T12:43:56;2.67;;;1.60;;
9052;SDS011;4561;47.450;7.516;2023-07-13T12:47:17;10.13;;;1.75;;
9052;SDS011;4561;47.450;7.516;2023-07-13T12:50:46;2.35;;;1.25;;
9052;SDS011;4561;47.450;7.516;2023-07-13T12:54:17;5.70;;;1.52;;
9052;SDS011;4561;47.450;7.516;2023-07-13T12:57:39;3.72;;;1.33;;
9052;SDS011;4561;47.450;7.516;2023-07-13T13:01:10;2.58;;;1.38;;
9052;SDS011;4561;47.450;7.516;2023-07-13T13:04:32;2.92;;;1.40;;
9052;SDS011;4561;47.450;7.516;2023-07-13T13:07:53;3.92;;;1.30;;
9052;SDS011;4561;47.450;7.516;2023-07-13T13:11:17;4.38;;;1.30;;
9052;SDS011;4561;47.450;7.516;2023-07-13T13:14:38;6.05;;;1.40;;
9052;SDS011;4561;47.450;7.516;2023-07-13T13:18:01;1.63;;;1.13;;
9052;SDS011;4561;47.450;7.516;2023-07-13T13:21:23;8.52;;;1.40;;
9052;SDS011;4561;47.450;7.516;2023-07-13T13:24:48;3.70;;;1.25;;
9052;SDS011;4561;47.450;7.516;2023-07-13T13:28:12;3.28;;;1.27;;
9052;SDS011;4561;47.450;7.516;2023-07-13T13:31:37;8.13;;;1.23;;
9052;SDS011;4561;47.450;7.516;2023-07-13T13:34:58;2.78;;;1.15;;
9052;SDS011;4561;47.450;7.516;2023-07-13T13:38:24;5.07;;;1.38;;
9052;SDS011;4561;47.450;7.516;2023-07-13T13:41:46;1.42;;;1.15;;
9052;SDS011;4561;47.450;7.516;2023-07-13T13:45:09;7.18;;;1.40;;
9052;SDS011;4561;47.450;7.516;2023-07-13T13:48:33;2.42;;;1.30;;
9052;SDS011;4561;47.450;7.516;2023-07-13T13:51:54;1.73;;;1.10;;
9052;SDS011;4561;47.450;7.516;2023-07-13T13:55:16;3.00;;;1.08;;
9052;SDS011;4561;47.450;7.516;2023-07-13T13:58:39;5.68;;;1.30;;
9052;SDS011;4561;47.450;7.516;2023-07-13T14:02:00;4.93;;;1.60;;
9052;SDS011;4561;47.450;7.516;2023-07-13T14:05:21;2.75;;;1.40;;
9052;SDS011;4561;47.450;7.516;2023-07-13T14:08:43;3.00;;;1.08;;
9052;SDS011;4561;47.450;7.516;2023-07-13T14:12:04;5.95;;;1.40;;
9052;SDS011;4561;47.450;7.516;2023-07-13T14:15:26;8.15;;;1.33;;
9052;SDS011;4561;47.450;7.516;2023-07-13T14:18:48;2.33;;;1.35;;
9052;SDS011;4561;47.450;7.516;2023-07-13T14:22:09;4.20;;;1.42;;
9052;SDS011;4561;47.450;7.516;2023-07-13T14:25:29;3.10;;;1.48;;
9052;SDS011;4561;47.450;7.516;2023-07-13T14:28:53;4.00;;;1.35;;
9052;SDS011;4561;47.450;7.516;2023-07-13T14:32:16;2.20;;;1.20;;
9052;SDS011;4561;47.450;7.516;2023-07-13T14:35:36;2.85;;;1.55;;
9052;SDS011;4561;47.450;7.516;2023-07-13T14:38:58;3.42;;;1.27;;
9052;SDS011;4561;47.450;7.516;2023-07-13T14:42:20;2.42;;;1.38;;
9052;SDS011;4561;47.450;7.516;2023-07-13T14:45:44;4.55;;;1.05;;
9052;SDS011;4561;47.450;7.516;2023-07-13T14:49:41;4.43;;;1.30;;
9052;SDS011;4561;47.450;7.516;2023-07-13T14:53:00;1.98;;;1.20;;
9052;SDS011;4561;47.450;7.516;2023-07-13T14:56:24;4.97;;;1.10;;
9052;SDS011;4561;47.450;7.516;2023-07-13T14:59:45;7.38;;;1.30;;
9052;SDS011;4561;47.450;7.516;2023-07-13T15:03:18;2.58;;;1.45;;
9052;SDS011;4561;47.450;7.516;2023-07-13T15:07:02;2.47;;;1.20;;
9052;SDS011;4561;47.450;7.516;2023-07-13T15:10:29;3.70;;;1.20;;
9052;SDS011;4561;47.450;7.516;2023-07-13T15:13:51;2.13;;;1.35;;
9052;SDS011;4561;47.450;7.516;2023-07-13T15:17:20;4.45;;;1.48;;
9052;SDS011;4561;47.450;7.516;2023-07-13T15:20:47;2.25;;;1.42;;
9052;SDS011;4561;47.450;7.516;2023-07-13T15:24:08;7.75;;;1.55;;
9052;SDS011;4561;47.450;7.516;2023-07-13T15:27:30;2.72;;;1.00;;
9052;SDS011;4561;47.450;7.516;2023-07-13T15:30:51;4.85;;;1.50;;
9052;SDS011;4561;47.450;7.516;2023-07-13T15:34:15;1.73;;;1.10;;
9052;SDS011;4561;47.450;7.516;2023-07-13T15:37:37;2.72;;;1.23;;
9052;SDS011;4561;47.450;7.516;2023-07-13T15:40:57;3.08;;;1.30;;
9052;SDS011;4561;47.450;7.516;2023-07-13T15:44:23;2.13;;;1.20;;
9052;SDS011;4561;47.450;7.516;2023-07-13T15:47:46;5.18;;;1.42;;
9052;SDS011;4561;47.450;7.516;2023-07-13T15:51:14;5.95;;;1.35;;
9052;SDS011;4561;47.450;7.516;2023-07-13T15:54:40;3.28;;;1.10;;
9052;SDS011;4561;47.450;7.516;2023-07-13T15:58:02;2.60;;;1.30;;
9052;SDS011;4561;47.450;7.516;2023-07-13T16:01:23;3.95;;;1.00;;
9052;SDS011;4561;47.450;7.516;2023-07-13T16:04:46;4.38;;;1.25;;
9052;SDS011;4561;47.450;7.516;2023-07-13T16:08:09;1.92;;;0.90;;
9052;SDS011;4561;47.450;7.516;2023-07-13T16:11:43;1.85;;;1.10;;
9052;SDS011;4561;47.450;7.516;2023-07-13T16:15:04;7.10;;;1.38;;
9052;SDS011;4561;47.450;7.516;2023-07-13T16:18:29;3.05;;;1.10;;
9052;SDS011;4561;47.450;7.516;2023-07-13T16:21:49;2.55;;;1.45;;
9052;SDS011;4561;47.450;7.516;2023-07-13T16:25:18;5.45;;;1.20;;
9052;SDS011;4561;47.450;7.516;2023-07-13T16:28:45;3.13;;;1.33;;
9052;SDS011;4561;47.450;7.516;2023-07-13T16:32:07;4.03;;;1.00;;
9052;SDS011;4561;47.450;7.516;2023-07-13T16:35:32;3.50;;;0.93;;
9052;SDS011;4561;47.450;7.516;2023-07-13T16:38:57;4.47;;;1.25;;
9052;SDS011;4561;47.450;7.516;2023-07-13T16:42:17;2.83;;;1.27;;
9052;SDS011;4561;47.450;7.516;2023-07-13T16:45:38;4.50;;;1.40;;
9052;SDS011;4561;47.450;7.516;2023-07-13T16:49:04;3.40;;;1.30;;
9052;SDS011;4561;47.450;7.516;2023-07-13T16:52:30;11.30;;;1.20;;
9052;SDS011;4561;47.450;7.516;2023-07-13T16:55:53;4.32;;;1.00;;
9052;SDS011;4561;47.450;7.516;2023-07-13T16:59:21;2.90;;;1.27;;
9052;SDS011;4561;47.450;7.516;2023-07-13T17:02:42;4.40;;;0.93;;
9052;SDS011;4561;47.450;7.516;2023-07-13T17:06:19;1.58;;;0.90;;
9052;SDS011;4561;47.450;7.516;2023-07-13T17:09:43;3.97;;;1.20;;
9052;SDS011;4561;47.450;7.516;2023-07-13T17:13:07;3.22;;;1.15;;
9052;SDS011;4561;47.450;7.516;2023-07-13T17:16:29;5.60;;;1.27;;
9052;SDS011;4561;47.450;7.516;2023-07-13T17:19:50;3.25;;;1.10;;
9052;SDS011;4561;47.450;7.516;2023-07-13T17:23:13;3.83;;;1.30;;
9052;SDS011;4561;47.450;7.516;2023-07-13T17:26:35;5.97;;;1.25;;
9052;SDS011;4561;47.450;7.516;2023-07-13T17:29:55;2.42;;;1.20;;
9052;SDS011;4561;47.450;7.516;2023-07-13T17:33:27;2.58;;;1.52;;
9052;SDS011;4561;47.450;7.516;2023-07-13T17:36:51;4.50;;;1.30;;
9052;SDS011;4561;47.450;7.516;2023-07-13T17:40:15;6.28;;;1.20;;
9052;SDS011;4561;47.450;7.516;2023-07-13T17:43:38;3.28;;;1.30;;
9052;SDS011;4561;47.450;7.516;2023-07-13T17:46:59;1.80;;;1.17;;
9052;SDS011;4561;47.450;7.516;2023-07-13T17:50:25;4.22;;;1.05;;
9052;SDS011;4561;47.450;7.516;2023-07-13T17:53:48;6.50;;;1.33;;
9052;SDS011;4561;47.450;7.516;2023-07-13T17:57:09;2.58;;;1.15;;
9052;SDS011;4561;47.450;7.516;2023-07-13T18:00:31;3.25;;;1.27;;
9052;SDS011;4561;47.450;7.516;2023-07-13T18:03:56;3.00;;;1.10;;
9052;SDS011;4561;47.450;7.516;2023-07-13T18:07:18;1.65;;;1.27;;
9052;SDS011;4561;47.450;7.516;2023-07-13T18:10:50;2.10;;;0.98;;
9052;SDS011;4561;47.450;7.516;2023-07-13T18:14:11;3.03;;;1.40;;
9052;SDS011;4561;47.450;7.516;2023-07-13T18:17:32;6.20;;;1.20;;
9052;SDS011;4561;47.450;7.516;2023-07-13T18:20:52;2.75;;;1.25;;
9052;SDS011;4561;47.450;7.516;2023-07-13T18:24:13;4.63;;;1.35;;
9052;SDS011;4561;47.450;7.516;2023-07-13T18:27:36;5.80;;;1.58;;
9052;SDS011;4561;47.450;7.516;2023-07-13T18:30:58;4.20;;;1.33;;
9052;SDS011;4561;47.450;7.516;2023-07-13T18:34:18;4.68;;;1.13;;
9052;SDS011;4561;47.450;7.516;2023-07-13T18:37:41;1.63;;;1.40;;
9052;SDS011;4561;47.450;7.516;2023-07-13T18:41:03;3.83;;;1.40;;
9052;SDS011;4561;47.450;7.516;2023-07-13T18:44:23;2.90;;;1.10;;
9052;SDS011;4561;47.450;7.516;2023-07-13T18:47:44;4.83;;;1.40;;
9052;SDS011;4561;47.450;7.516;2023-07-13T18:51:10;5.13;;;1.42;;
9052;SDS011;4561;47.450;7.516;2023-07-13T18:54:32;3.43;;;1.60;;
9052;SDS011;4561;47.450;7.516;2023-07-13T18:57:53;2.93;;;1.27;;
9052;SDS011;4561;47.450;7.516;2023-07-13T19:04:44;3.00;;;1.40;;
9052;SDS011;4561;47.450;7.516;2023-07-13T19:08:04;5.03;;;1.10;;
9052;SDS011;4561;47.450;7.516;2023-07-13T19:11:34;4.57;;;1.30;;
9052;SDS011;4561;47.450;7.516;2023-07-13T19:14:55;6.73;;;1.57;;
9052;SDS011;4561;47.450;7.516;2023-07-13T19:18:19;2.53;;;1.30;;
9052;SDS011;4561;47.450;7.516;2023-07-13T19:21:40;3.57;;;1.50;;
9052;SDS011;4561;47.450;7.516;2023-07-13T19:25:01;4.50;;;1.40;;
9052;SDS011;4561;47.450;7.516;2023-07-13T19:32:12;1.47;;;1.00;;
9052;SDS011;4561;47.450;7.516;2023-07-13T19:35:36;2.37;;;1.33;;
9052;SDS011;4561;47.450;7.516;2023-07-13T19:38:59;4.53;;;1.30;;
9052;SDS011;4561;47.450;7.516;2023-07-13T19:42:24;2.43;;;1.33;;
9052;SDS011;4561;47.450;7.516;2023-07-13T19:45:45;3.60;;;1.47;;
9052;SDS011;4561;47.450;7.516;2023-07-13T19:49:11;1.90;;;1.20;;
9052;SDS011;4561;47.450;7.516;2023-07-13T19:52:32;1.47;;;1.20;;
9052;SDS011;4561;47.450;7.516;2023-07-13T19:55:53;5.50;;;1.20;;
9052;SDS011;4561;47.450;7.516;2023-07-13T19:59:26;2.90;;;1.00;;
9052;SDS011;4561;47.450;7.516;2023-07-13T20:02:49;1.87;;;1.10;;
9052;SDS011;4561;47.450;7.516;2023-07-13T20:06:30;4.07;;;1.50;;
9052;SDS011;4561;47.450;7.516;2023-07-13T20:09:57;2.93;;;1.00;;
9052;SDS011;4561;47.450;7.516;2023-07-13T20:13:17;4.07;;;1.23;;
9052;SDS011;4561;47.450;7.516;2023-07-13T20:16:40;5.57;;;1.47;;
9052;SDS011;4561;47.450;7.516;2023-07-13T20:20:37;3.27;;;1.30;;
9052;SDS011;4561;47.450;7.516;2023-07-13T20:23:56;3.97;;;1.40;;
9052;SDS011;4561;47.450;7.516;2023-07-13T20:27:19;3.20;;;1.37;;
9052;SDS011;4561;47.450;7.516;2023-07-13T20:30:47;3.00;;;1.20;;
9052;SDS011;4561;47.450;7.516;2023-07-13T20:34:08;3.00;;;1.23;;
9052;SDS011;4561;47.450;7.516;2023-07-13T20:37:37;2.63;;;1.03;;
9052;SDS011;4561;47.450;7.516;2023-07-13T20:40:58;2.90;;;1.17;;
9052;SDS011;4561;47.450;7.516;2023-07-13T20:44:22;2.60;;;1.23;;
9052;SDS011;4561;47.450;7.516;2023-07-13T20:47:42;2.03;;;1.07;;
9052;SDS011;4561;47.450;7.516;2023-07-13T20:51:03;1.67;;;1.40;;
9052;SDS011;4561;47.450;7.516;2023-07-13T20:54:24;5.07;;;1.40;;
9052;SDS011;4561;47.450;7.516;2023-07-13T20:57:45;3.80;;;1.13;;
9052;SDS011;4561;47.450;7.516;2023-07-13T21:01:05;1.77;;;1.40;;
9052;SDS011;4561;47.450;7.516;2023-07-13T21:04:28;3.23;;;1.30;;
9052;SDS011;4561;47.450;7.516;2023-07-13T21:07:51;3.70;;;1.27;;
9052;SDS011;4561;47.450;7.516;2023-07-13T21:11:12;3.30;;;1.30;;
9052;SDS011;4561;47.450;7.516;2023-07-13T21:14:33;2.13;;;1.17;;
9052;SDS011;4561;47.450;7.516;2023-07-13T21:17:54;2.50;;;1.17;;
9052;SDS011;4561;47.450;7.516;2023-07-13T21:21:22;3.07;;;1.50;;
9052;SDS011;4561;47.450;7.516;2023-07-13T21:24:44;2.90;;;1.27;;
9052;SDS011;4561;47.450;7.516;2023-07-13T21:28:07;3.63;;;1.33;;
9052;SDS011;4561;47.450;7.516;2023-07-13T21:31:31;6.03;;;1.40;;
9052;SDS011;4561;47.450;7.516;2023-07-13T21:34:55;2.70;;;1.33;;